Grattan, Nebraska
Current Conditions -  °F | °C
As of 12:15 AM on Thursday 23 Oct 2014 (Local Time) from KONL Reporting Station
Moderate Fog Moderate Fog  
Wind Chill: 43°   Ceiling: 500
Heat Index: 43°   Visibility: 0.5mi
Dew Point: 43°   Wind: 0mph
Humidity: 100%   Direction: NA
Pressure: 30.04"   Gusts: NA
Location:  42.6164°N, 98.6183°W
Report Text: KONL 230515Z AUTO 00000KT 1/2SM FG VV005 06/06 A3004 RMK AO2 T00620062
Loading
Personal Weather Stations






























Interactive Weather Map
Tropical Storm Tracking
New forecast layout! Learn more

10-Day Weather Forecast

Advertisements
Track Severe Weather on mobile